AirNav   Air Wisconsin pilot careers
 
 323 users online  

M34 Kentucky Dam State Park Airport
Gilbertsville, Kentucky, USA

GOING TO GILBERTSVILLE?


FAA INFORMATION EFFECTIVE 26 APRIL 2018

Location

FAA Identifier: M34
Lat/Long: 37-00-35.2460N / 088-17-57.8502W
37-00.587433N / 088-17.964170W
37.0097906 / -88.2994028
(estimated)
Elevation: 350.8 ft. / 106.9 m (surveyed)
Variation: 01E (1985)
From city: 1 mile NW of GILBERTSVILLE, KY
Time zone: UTC -5 (UTC -6 during Standard Time)
Zip code: 42044

Airport Operations

Airport use: Open to the public
Activation date: 10/1948
Control tower: no
ARTCC: MEMPHIS CENTER
FSS: LOUISVILLE FLIGHT SERVICE STATION
NOTAMs facility: LOU (NOTAM-D service available)
Attendance: UNATNDD
Wind indicator: lighted
Segmented circle: yes
Lights: ACTVT REIL RY 09/27; PAPI RY 09/27; MIRL RY 09/27 - CTAF.
Beacon: white-green (lighted land airport)
Operates sunset to sunrise.

Airport Communications

CTAF/UNICOM: 123.0
WX AWOS-3 at M25 (20 nm SW): 120.625 (270-247-2094)

Nearby radio navigation aids

VOR radial/distance  VOR name  Freq  Var
CNGr087/25.8CUNNINGHAM VOR/DME113.1003E

Airport Services

Parking: tiedowns
Airframe service: NONE
Powerplant service: NONE
Bottled oxygen: NONE
Bulk oxygen: NONE

Runway Information

Runway 9/27

Dimensions: 4005 x 100 ft. / 1221 x 30 m
Surface: asphalt, in good condition
Weight bearing capacity: 
Single wheel: 12.5
Runway edge lights: medium intensity
RUNWAY 9  RUNWAY 27
Latitude: 37-00.640533N37-00.534333N
Longitude: 088-18.370300W088-17.558040W
Elevation: 348.6 ft.350.7 ft.
Gradient: 0.3%0.3%
Traffic pattern: leftleft
Markings: nonprecision, in good conditionnonprecision, in good condition
Visual slope indicator: 2-light PAPI on left (4.00 degrees glide path)2-light PAPI on left (4.00 degrees glide path)
Runway end identifier lights: yesyes
Touchdown point: yes, no lightsyes, no lights
Obstructions: 60 ft. trees, 1875 ft. from runway, 48 ft. left of centerline, 27:1 slope to clear34 ft. trees, 480 ft. from runway, 88 ft. left of centerline, 8:1 slope to clear

Airport Ownership and Management from official FAA records

Ownership: Publicly-owned
Owner: KENTUCKY DEPT. OF PARKS
CAPITAL PLAZA TOWER
FRANKFORT, KY 40601
Phone 502-564-2172
Manager: SCOT RATZLAFF
113 ADMINISTRATION DRIVE
GILBERTSVILLE, KY 42044
Phone 270-362-4271

Airport Operational Statistics

Aircraft based on the field: 6
Single engine airplanes: 6
    
Aircraft operations: avg 44/day *
69% transient general aviation
19% military
9% local general aviation
3% air taxi
* for 12-month period ending 11 October 2016

Additional Remarks

DEER AND LARGE FLOCKS OF GEESE ON AND INVOF ARPT.
TRANSPORTATION TO PARK LODGE AVAIL 270-362-4271.

Instrument Procedures

There are no published instrument procedures at M34.

Some nearby airports with instrument procedures:

M25 - Mayfield Graves County Airport (20 nm SW)
KCEY - Kyle-Oakley Field Airport (21 nm S)
5M9 - Marion-Crittenden County Airport (22 nm NE)
2M0 - Princeton-Caldwell County Airport (22 nm E)
KPAH - Barkley Regional Airport (23 nm W)
 
Loc | Ops | Rwys | IFR | FBO | Links
Com | Nav | Svcs | Stats | Notes

AirNav Hotels Sweepstakes
 
Area around M34 (Kentucky Dam State Park Airport)
 
Road maps at: MapQuest Bing Google
 
Aerial photo
WARNING: Photo may not be current or correct
Aerial photo of M34 (Kentucky Dam State Park Airport)
Photo by Brandon Tanner
Photo taken 02-Apr-2015
looking east.

Do you have a better or more recent aerial photo of Kentucky Dam State Park Airport that you would like to share? If so, please send us your photo.

 
Sectional chart

 
Airport distance calculator
Flying to Kentucky Dam State Park Airport? Find the distance to fly.

From to M34

Sunrise and sunset
Times for 23-May-2018
 Local
(UTC-5)
 Zulu
(UTC)
Morning civil twilight05:1110:11
Sunrise05:4010:40
Sunset20:0001:00
Evening civil twilight20:2901:29

Current date and time
Zulu (UTC)  23-May-2018 07:55:40
Local (UTC-5)  23-May-2018 02:55:40
 
METAR
KM25 
20nm SW 
230735Z AUTO 00000KT 7SM CLR 20/20 A3005 RMK AO2 PWINO
KCEY 
21nm S 
230735Z AUTO 00000KT 9SM 20/20 A3004 RMK AO1
K5M9 
22nm NE 
230735Z AUTO 31004KT 7SM CLR 20/20 A3005 RMK AO2 T01990199
KPAH 
23nm W 
230653Z AUTO 00000KT 5SM BR CLR 21/19 A3004 RMK AO2 SLP166 T02060194
KM30 
24nm NW 
230735Z AUTO 00000KT 4SM BR CLR 20/20 A3005 RMK AO2 T02010197
TAF
KPAH 
23nm W 
230520Z 2306/2406 VRB03KT P6SM SCT150 TEMPO 2309/2312 5SM BR FM231500 03006KT P6SM SCT050 FM240100 VRB03KT P6SM SKC
NOTAMs
Click for the latest NOTAMs
NOTAMs are issued by the DoD/FAA and will open in a separate window not controlled by AirNav.

 

 
 

FBO, Fuel Providers, and Aircraft Ground Support

  
 Business Name 
 
 Contact 
 
 Services / Description 
 
Fuel Prices
 
Comments
  
Kentucky Dam Village State Resort Park 270-362-4271
toll-free 1-800-325-0146
[web site]

Like us on facebook Follow us on twitter
Aircraft parking (ramp or tiedown), Passenger terminal and lounge, Courtesy transportation, Pilots lounge / snooze room, Public telephone, Restrooms, Showers, Lodging, ...
 
Courtesy shuttle  
 
More info about Kentucky Dam Village State Resort Park
no fuel
 
   6 read write
Update Fuel Prices
 

Would you like to see your business listed on this page?

 If your business provides an interesting product or service to pilots, flight crews, aircraft, or users of the Kentucky Dam State Park Airport, you should consider listing it here.  To start the listing process, click on the button below
 
Add a business
 

Other Pages about Kentucky Dam State Park Airport

Update a link
 
Copyright © AirNav, LLC. All rights reserved. Privacy Policy  Contact